sensor_id;sensor_type;location;lat;lon;timestamp;temperature;humidity
42683;DHT22;28293;50.930;3.464;2022-08-18T00:02:17;18.30;91.10
42683;DHT22;28293;50.930;3.464;2022-08-18T00:04:45;18.30;91.10
42683;DHT22;28293;50.930;3.464;2022-08-18T00:07:14;18.20;91.10
42683;DHT22;28293;50.930;3.464;2022-08-18T00:09:41;18.20;91.00
42683;DHT22;28293;50.930;3.464;2022-08-18T00:12:13;18.20;91.10
42683;DHT22;28293;50.930;3.464;2022-08-18T00:14:39;18.10;91.20
42683;DHT22;28293;50.930;3.464;2022-08-18T00:17:05;18.10;91.30
42683;DHT22;28293;50.930;3.464;2022-08-18T00:19:30;18.10;91.40
42683;DHT22;28293;50.930;3.464;2022-08-18T00:21:57;18.10;91.50
42683;DHT22;28293;50.930;3.464;2022-08-18T00:24:22;18.10;91.50
42683;DHT22;28293;50.930;3.464;2022-08-18T00:26:48;18.10;91.60
42683;DHT22;28293;50.930;3.464;2022-08-18T00:29:14;18.10;91.60
42683;DHT22;28293;50.930;3.464;2022-08-18T00:31:40;18.10;91.60
42683;DHT22;28293;50.930;3.464;2022-08-18T00:34:05;18.10;91.60
42683;DHT22;28293;50.930;3.464;2022-08-18T00:36:32;18.10;91.50
42683;DHT22;28293;50.930;3.464;2022-08-18T00:38:59;18.10;91.50
42683;DHT22;28293;50.930;3.464;2022-08-18T00:41:25;18.10;91.40
42683;DHT22;28293;50.930;3.464;2022-08-18T00:43:53;18.00;91.50
42683;DHT22;28293;50.930;3.464;2022-08-18T00:46:31;18.00;91.60
42683;DHT22;28293;50.930;3.464;2022-08-18T00:48:58;18.00;91.70
42683;DHT22;28293;50.930;3.464;2022-08-18T00:51:38;18.10;91.80
42683;DHT22;28293;50.930;3.464;2022-08-18T00:56:46;18.00;91.80
42683;DHT22;28293;50.930;3.464;2022-08-18T00:59:25;18.00;91.90
42683;DHT22;28293;50.930;3.464;2022-08-18T01:01:55;18.00;91.80
42683;DHT22;28293;50.930;3.464;2022-08-18T01:04:33;18.00;91.90
42683;DHT22;28293;50.930;3.464;2022-08-18T01:07:06;18.00;91.80
42683;DHT22;28293;50.930;3.464;2022-08-18T01:09:34;18.00;91.70
42683;DHT22;28293;50.930;3.464;2022-08-18T01:12:00;17.90;91.70
42683;DHT22;28293;50.930;3.464;2022-08-18T01:14:26;17.90;91.60
42683;DHT22;28293;50.930;3.464;2022-08-18T01:16:52;17.90;91.60
42683;DHT22;28293;50.930;3.464;2022-08-18T01:19:37;17.90;91.60
42683;DHT22;28293;50.930;3.464;2022-08-18T01:22:29;17.90;91.50
42683;DHT22;28293;50.930;3.464;2022-08-18T01:24:57;17.90;91.60
42683;DHT22;28293;50.930;3.464;2022-08-18T01:27:42;17.80;91.50
42683;DHT22;28293;50.930;3.464;2022-08-18T01:30:12;17.80;91.50
42683;DHT22;28293;50.930;3.464;2022-08-18T01:32:39;17.80;91.40
42683;DHT22;28293;50.930;3.464;2022-08-18T01:35:07;17.80;91.30
42683;DHT22;28293;50.930;3.464;2022-08-18T01:37:35;17.70;91.20
42683;DHT22;28293;50.930;3.464;2022-08-18T01:40:02;17.70;91.10
42683;DHT22;28293;50.930;3.464;2022-08-18T01:42:31;17.70;91.10
42683;DHT22;28293;50.930;3.464;2022-08-18T01:44:57;17.60;91.00
42683;DHT22;28293;50.930;3.464;2022-08-18T01:47:22;17.60;91.00
42683;DHT22;28293;50.930;3.464;2022-08-18T01:49:48;17.60;91.00
42683;DHT22;28293;50.930;3.464;2022-08-18T01:52:17;17.60;91.00
42683;DHT22;28293;50.930;3.464;2022-08-18T01:54:45;17.60;91.00
42683;DHT22;28293;50.930;3.464;2022-08-18T01:57:11;17.60;90.90
42683;DHT22;28293;50.930;3.464;2022-08-18T01:59:38;17.60;90.90
42683;DHT22;28293;50.930;3.464;2022-08-18T02:02:04;17.60;91.00
42683;DHT22;28293;50.930;3.464;2022-08-18T02:04:31;17.60;90.90
42683;DHT22;28293;50.930;3.464;2022-08-18T02:06:58;17.60;90.90
42683;DHT22;28293;50.930;3.464;2022-08-18T02:09:26;17.60;90.90
42683;DHT22;28293;50.930;3.464;2022-08-18T02:11:52;17.60;91.00
42683;DHT22;28293;50.930;3.464;2022-08-18T02:14:18;17.60;91.00
42683;DHT22;28293;50.930;3.464;2022-08-18T02:16:43;17.50;91.00
42683;DHT22;28293;50.930;3.464;2022-08-18T02:19:09;17.40;91.00
42683;DHT22;28293;50.930;3.464;2022-08-18T02:21:36;17.50;91.00
42683;DHT22;28293;50.930;3.464;2022-08-18T02:24:03;17.40;90.60
42683;DHT22;28293;50.930;3.464;2022-08-18T02:26:28;17.40;90.60
42683;DHT22;28293;50.930;3.464;2022-08-18T02:28:54;17.40;90.60
42683;DHT22;28293;50.930;3.464;2022-08-18T02:31:22;17.40;90.70
42683;DHT22;28293;50.930;3.464;2022-08-18T02:33:48;17.40;90.70
42683;DHT22;28293;50.930;3.464;2022-08-18T02:36:14;17.40;90.70
42683;DHT22;28293;50.930;3.464;2022-08-18T02:38:41;17.30;90.70
42683;DHT22;28293;50.930;3.464;2022-08-18T02:41:09;17.40;90.80
42683;DHT22;28293;50.930;3.464;2022-08-18T02:43:36;17.30;90.90
42683;DHT22;28293;50.930;3.464;2022-08-18T02:46:03;17.40;91.00
42683;DHT22;28293;50.930;3.464;2022-08-18T02:48:29;17.40;90.90
42683;DHT22;28293;50.930;3.464;2022-08-18T02:51:09;17.40;90.80
42683;DHT22;28293;50.930;3.464;2022-08-18T02:53:38;17.40;90.70
42683;DHT22;28293;50.930;3.464;2022-08-18T02:56:13;17.40;90.70
42683;DHT22;28293;50.930;3.464;2022-08-18T02:58:45;17.50;90.70
42683;DHT22;28293;50.930;3.464;2022-08-18T03:01:11;17.50;90.80
42683;DHT22;28293;50.930;3.464;2022-08-18T03:03:37;17.60;90.70
42683;DHT22;28293;50.930;3.464;2022-08-18T03:06:03;17.50;90.60
42683;DHT22;28293;50.930;3.464;2022-08-18T03:08:29;17.50;90.70
42683;DHT22;28293;50.930;3.464;2022-08-18T03:10:55;17.50;90.50
42683;DHT22;28293;50.930;3.464;2022-08-18T03:13:20;17.50;90.60
42683;DHT22;28293;50.930;3.464;2022-08-18T03:15:46;17.50;90.60
42683;DHT22;28293;50.930;3.464;2022-08-18T03:18:12;17.50;90.60
42683;DHT22;28293;50.930;3.464;2022-08-18T03:20:38;17.50;90.60
42683;DHT22;28293;50.930;3.464;2022-08-18T03:23:04;17.50;90.80
42683;DHT22;28293;50.930;3.464;2022-08-18T03:25:30;17.50;90.70
42683;DHT22;28293;50.930;3.464;2022-08-18T03:27:56;17.50;90.80
42683;DHT22;28293;50.930;3.464;2022-08-18T03:30:21;17.40;90.70
42683;DHT22;28293;50.930;3.464;2022-08-18T03:32:50;17.40;90.80
42683;DHT22;28293;50.930;3.464;2022-08-18T03:35:16;17.40;90.80
42683;DHT22;28293;50.930;3.464;2022-08-18T03:37:42;17.40;90.80
42683;DHT22;28293;50.930;3.464;2022-08-18T03:40:09;17.40;91.00
42683;DHT22;28293;50.930;3.464;2022-08-18T03:42:36;17.40;91.20
42683;DHT22;28293;50.930;3.464;2022-08-18T03:45:02;17.40;91.20
42683;DHT22;28293;50.930;3.464;2022-08-18T03:47:28;17.40;91.30
42683;DHT22;28293;50.930;3.464;2022-08-18T03:49:53;17.40;91.00
42683;DHT22;28293;50.930;3.464;2022-08-18T03:52:19;17.40;90.90
42683;DHT22;28293;50.930;3.464;2022-08-18T03:54:45;17.30;91.00
42683;DHT22;28293;50.930;3.464;2022-08-18T03:57:11;17.30;91.10
42683;DHT22;28293;50.930;3.464;2022-08-18T03:59:37;17.30;91.20
42683;DHT22;28293;50.930;3.464;2022-08-18T04:02:06;17.30;91.30
42683;DHT22;28293;50.930;3.464;2022-08-18T04:04:32;17.20;91.20
42683;DHT22;28293;50.930;3.464;2022-08-18T04:07:00;17.10;91.40
42683;DHT22;28293;50.930;3.464;2022-08-18T04:09:29;17.10;91.50
42683;DHT22;28293;50.930;3.464;2022-08-18T04:12:01;17.10;91.70
42683;DHT22;28293;50.930;3.464;2022-08-18T04:14:27;17.10;91.80
42683;DHT22;28293;50.930;3.464;2022-08-18T04:16:57;17.10;91.90
42683;DHT22;28293;50.930;3.464;2022-08-18T04:19:23;17.10;92.00
42683;DHT22;28293;50.930;3.464;2022-08-18T04:21:50;17.10;92.10
42683;DHT22;28293;50.930;3.464;2022-08-18T04:24:16;17.10;92.00
42683;DHT22;28293;50.930;3.464;2022-08-18T04:26:45;17.10;92.30
42683;DHT22;28293;50.930;3.464;2022-08-18T04:29:13;17.10;92.30
42683;DHT22;28293;50.930;3.464;2022-08-18T04:31:39;17.20;92.30
42683;DHT22;28293;50.930;3.464;2022-08-18T04:34:05;17.20;92.20
42683;DHT22;28293;50.930;3.464;2022-08-18T04:36:33;17.20;92.20
42683;DHT22;28293;50.930;3.464;2022-08-18T04:38:59;17.20;92.30
42683;DHT22;28293;50.930;3.464;2022-08-18T04:41:26;17.20;92.30
42683;DHT22;28293;50.930;3.464;2022-08-18T04:44:00;17.20;92.50
42683;DHT22;28293;50.930;3.464;2022-08-18T04:46:27;17.20;92.50
42683;DHT22;28293;50.930;3.464;2022-08-18T04:48:53;17.20;92.50
42683;DHT22;28293;50.930;3.464;2022-08-18T04:51:24;17.20;92.50
42683;DHT22;28293;50.930;3.464;2022-08-18T04:53:51;17.20;92.50
42683;DHT22;28293;50.930;3.464;2022-08-18T04:56:25;17.20;92.60
42683;DHT22;28293;50.930;3.464;2022-08-18T04:58:59;17.20;92.50
42683;DHT22;28293;50.930;3.464;2022-08-18T05:01:28;17.20;92.40
42683;DHT22;28293;50.930;3.464;2022-08-18T05:03:56;17.10;92.30
42683;DHT22;28293;50.930;3.464;2022-08-18T05:06:23;17.10;92.50
42683;DHT22;28293;50.930;3.464;2022-08-18T05:08:52;17.20;92.40
42683;DHT22;28293;50.930;3.464;2022-08-18T05:11:20;17.30;92.50
42683;DHT22;28293;50.930;3.464;2022-08-18T05:13:46;17.20;92.50
42683;DHT22;28293;50.930;3.464;2022-08-18T05:16:13;17.30;92.50
42683;DHT22;28293;50.930;3.464;2022-08-18T05:18:39;17.30;92.50
42683;DHT22;28293;50.930;3.464;2022-08-18T05:21:06;17.40;92.40
42683;DHT22;28293;50.930;3.464;2022-08-18T05:23:39;17.40;92.30
42683;DHT22;28293;50.930;3.464;2022-08-18T05:26:05;17.50;92.30
42683;DHT22;28293;50.930;3.464;2022-08-18T05:28:31;17.50;92.10
42683;DHT22;28293;50.930;3.464;2022-08-18T05:31:14;17.40;91.90
42683;DHT22;28293;50.930;3.464;2022-08-18T05:33:41;17.50;92.10
42683;DHT22;28293;50.930;3.464;2022-08-18T05:39:02;17.50;91.80
42683;DHT22;28293;50.930;3.464;2022-08-18T05:41:33;17.60;91.90
42683;DHT22;28293;50.930;3.464;2022-08-18T05:44:00;17.70;91.90
42683;DHT22;28293;50.930;3.464;2022-08-18T05:46:45;17.80;91.70
42683;DHT22;28293;50.930;3.464;2022-08-18T05:49:13;17.90;91.30
42683;DHT22;28293;50.930;3.464;2022-08-18T05:51:46;17.60;90.30
42683;DHT22;28293;50.930;3.464;2022-08-18T05:54:14;17.80;91.00
42683;DHT22;28293;50.930;3.464;2022-08-18T05:57:04;17.90;91.10
42683;DHT22;28293;50.930;3.464;2022-08-18T05:59:32;17.90;90.80
42683;DHT22;28293;50.930;3.464;2022-08-18T06:02:11;18.00;90.60
42683;DHT22;28293;50.930;3.464;2022-08-18T06:07:27;18.10;90.40
42683;DHT22;28293;50.930;3.464;2022-08-18T06:09:55;18.20;90.50
42683;DHT22;28293;50.930;3.464;2022-08-18T06:12:30;18.30;90.50
42683;DHT22;28293;50.930;3.464;2022-08-18T06:15:13;18.30;90.10
42683;DHT22;28293;50.930;3.464;2022-08-18T06:26:23;18.30;89.30
42683;DHT22;28293;50.930;3.464;2022-08-18T06:37:12;18.60;88.90
42683;DHT22;28293;50.930;3.464;2022-08-18T06:39:48;18.60;88.90
42683;DHT22;28293;50.930;3.464;2022-08-18T06:42:20;18.70;89.10
42683;DHT22;28293;50.930;3.464;2022-08-18T06:45:10;18.80;88.90
42683;DHT22;28293;50.930;3.464;2022-08-18T06:48:02;19.00;88.80
42683;DHT22;28293;50.930;3.464;2022-08-18T06:50:38;19.00;88.50
42683;DHT22;28293;50.930;3.464;2022-08-18T06:53:07;19.20;88.60
42683;DHT22;28293;50.930;3.464;2022-08-18T06:55:44;19.30;88.00
42683;DHT22;28293;50.930;3.464;2022-08-18T07:00:54;19.50;87.40
42683;DHT22;28293;50.930;3.464;2022-08-18T07:03:44;19.50;87.40
42683;DHT22;28293;50.930;3.464;2022-08-18T07:06:22;19.50;87.30
42683;DHT22;28293;50.930;3.464;2022-08-18T07:08:50;19.60;88.10
42683;DHT22;28293;50.930;3.464;2022-08-18T07:13:43;19.80;86.90
42683;DHT22;28293;50.930;3.464;2022-08-18T07:19:04;20.00;87.20
42683;DHT22;28293;50.930;3.464;2022-08-18T07:21:32;20.20;87.10
42683;DHT22;28293;50.930;3.464;2022-08-18T07:24:05;20.40;86.20
42683;DHT22;28293;50.930;3.464;2022-08-18T07:29:36;20.30;85.20
42683;DHT22;28293;50.930;3.464;2022-08-18T07:32:17;20.30;85.60
42683;DHT22;28293;50.930;3.464;2022-08-18T07:34:49;20.20;85.70
42683;DHT22;28293;50.930;3.464;2022-08-18T07:37:20;20.10;86.90
42683;DHT22;28293;50.930;3.464;2022-08-18T07:39:54;20.20;87.20
42683;DHT22;28293;50.930;3.464;2022-08-18T07:42:38;20.40;86.90
42683;DHT22;28293;50.930;3.464;2022-08-18T07:45:40;20.40;86.00
42683;DHT22;28293;50.930;3.464;2022-08-18T07:48:13;20.50;85.70
42683;DHT22;28293;50.930;3.464;2022-08-18T07:56:39;20.80;85.20
42683;DHT22;28293;50.930;3.464;2022-08-18T07:59:13;20.90;85.60
42683;DHT22;28293;50.930;3.464;2022-08-18T08:07:11;21.10;84.00
42683;DHT22;28293;50.930;3.464;2022-08-18T08:14:48;21.60;83.60
42683;DHT22;28293;50.930;3.464;2022-08-18T08:25:30;21.60;82.40
42683;DHT22;28293;50.930;3.464;2022-08-18T08:30:29;21.60;82.80
42683;DHT22;28293;50.930;3.464;2022-08-18T08:35:52;21.80;82.90
42683;DHT22;28293;50.930;3.464;2022-08-18T08:38:44;22.00;82.20
42683;DHT22;28293;50.930;3.464;2022-08-18T08:41:19;22.20;81.90
42683;DHT22;28293;50.930;3.464;2022-08-18T08:44:08;22.40;81.10
42683;DHT22;28293;50.930;3.464;2022-08-18T08:52:25;22.60;80.30
42683;DHT22;28293;50.930;3.464;2022-08-18T08:54:59;22.90;79.50
42683;DHT22;28293;50.930;3.464;2022-08-18T08:57:34;23.10;78.60
42683;DHT22;28293;50.930;3.464;2022-08-18T09:00:04;23.40;77.10
42683;DHT22;28293;50.930;3.464;2022-08-18T09:05:25;23.60;74.80
42683;DHT22;28293;50.930;3.464;2022-08-18T09:24:29;24.50;71.80
42683;DHT22;28293;50.930;3.464;2022-08-18T09:30:03;24.60;68.80
42683;DHT22;28293;50.930;3.464;2022-08-18T09:35:30;24.90;68.30
42683;DHT22;28293;50.930;3.464;2022-08-18T09:38:09;24.90;68.80
42683;DHT22;28293;50.930;3.464;2022-08-18T09:41:03;24.50;69.00
42683;DHT22;28293;50.930;3.464;2022-08-18T09:44:04;24.30;70.20
42683;DHT22;28293;50.930;3.464;2022-08-18T09:51:55;24.90;67.10
42683;DHT22;28293;50.930;3.464;2022-08-18T09:54:32;25.10;65.60
42683;DHT22;28293;50.930;3.464;2022-08-18T10:13:16;26.50;62.90
42683;DHT22;28293;50.930;3.464;2022-08-18T10:18:51;26.70;61.40
42683;DHT22;28293;50.930;3.464;2022-08-18T10:21:21;26.50;61.90
42683;DHT22;28293;50.930;3.464;2022-08-18T10:24:13;26.70;61.20
42683;DHT22;28293;50.930;3.464;2022-08-18T10:34:51;27.10;57.40
42683;DHT22;28293;50.930;3.464;2022-08-18T10:37:22;27.40;56.20
42683;DHT22;28293;50.930;3.464;2022-08-18T10:39:53;27.30;57.10
42683;DHT22;28293;50.930;3.464;2022-08-18T10:42:24;27.50;56.10
42683;DHT22;28293;50.930;3.464;2022-08-18T10:44:54;27.80;55.70
42683;DHT22;28293;50.930;3.464;2022-08-18T10:47:27;27.40;57.00
42683;DHT22;28293;50.930;3.464;2022-08-18T10:49:54;26.60;58.90
42683;DHT22;28293;50.930;3.464;2022-08-18T10:58:07;25.90;60.30
42683;DHT22;28293;50.930;3.464;2022-08-18T11:00:58;26.20;60.60
42683;DHT22;28293;50.930;3.464;2022-08-18T11:06:09;25.90;61.50
42683;DHT22;28293;50.930;3.464;2022-08-18T11:08:43;26.10;60.80
42683;DHT22;28293;50.930;3.464;2022-08-18T11:11:10;26.10;59.50
42683;DHT22;28293;50.930;3.464;2022-08-18T11:18:45;25.80;61.50
42683;DHT22;28293;50.930;3.464;2022-08-18T11:21:38;25.60;62.20
42683;DHT22;28293;50.930;3.464;2022-08-18T11:26:47;26.40;60.20
42683;DHT22;28293;50.930;3.464;2022-08-18T11:29:32;26.60;59.60
42683;DHT22;28293;50.930;3.464;2022-08-18T11:32:23;27.10;58.30
42683;DHT22;28293;50.930;3.464;2022-08-18T11:34:51;27.10;57.70
42683;DHT22;28293;50.930;3.464;2022-08-18T11:40:11;27.40;56.60
42683;DHT22;28293;50.930;3.464;2022-08-18T11:45:48;27.70;56.90
42683;DHT22;28293;50.930;3.464;2022-08-18T11:58:43;27.40;57.90
42683;DHT22;28293;50.930;3.464;2022-08-18T12:01:53;27.60;55.90
42683;DHT22;28293;50.930;3.464;2022-08-18T12:07:08;27.90;54.90
42683;DHT22;28293;50.930;3.464;2022-08-18T12:10:08;27.80;53.40
42683;DHT22;28293;50.930;3.464;2022-08-18T12:12:47;27.60;55.30
42683;DHT22;28293;50.930;3.464;2022-08-18T12:17:40;27.20;55.60
42683;DHT22;28293;50.930;3.464;2022-08-18T12:20:07;27.50;53.40
42683;DHT22;28293;50.930;3.464;2022-08-18T12:22:34;27.70;53.40
42683;DHT22;28293;50.930;3.464;2022-08-18T12:25:04;28.20;51.50
42683;DHT22;28293;50.930;3.464;2022-08-18T12:27:30;28.60;52.50
42683;DHT22;28293;50.930;3.464;2022-08-18T12:30:00;29.00;49.90
42683;DHT22;28293;50.930;3.464;2022-08-18T12:32:28;29.20;50.20
42683;DHT22;28293;50.930;3.464;2022-08-18T12:34:54;29.20;48.80
42683;DHT22;28293;50.930;3.464;2022-08-18T12:37:23;28.80;50.50
42683;DHT22;28293;50.930;3.464;2022-08-18T12:39:49;28.30;50.70
42683;DHT22;28293;50.930;3.464;2022-08-18T12:42:15;28.30;51.80
42683;DHT22;28293;50.930;3.464;2022-08-18T12:44:41;28.80;52.20
42683;DHT22;28293;50.930;3.464;2022-08-18T12:47:12;29.00;49.60
42683;DHT22;28293;50.930;3.464;2022-08-18T12:49:38;29.20;49.90
42683;DHT22;28293;50.930;3.464;2022-08-18T12:52:04;29.50;49.30
42683;DHT22;28293;50.930;3.464;2022-08-18T12:54:30;29.40;50.00
42683;DHT22;28293;50.930;3.464;2022-08-18T12:56:58;29.20;49.90
42683;DHT22;28293;50.930;3.464;2022-08-18T12:59:23;29.10;51.80
42683;DHT22;28293;50.930;3.464;2022-08-18T13:01:49;29.20;51.40
42683;DHT22;28293;50.930;3.464;2022-08-18T13:04:15;29.30;50.30
42683;DHT22;28293;50.930;3.464;2022-08-18T13:06:48;29.30;51.00
42683;DHT22;28293;50.930;3.464;2022-08-18T13:09:14;29.00;50.40
42683;DHT22;28293;50.930;3.464;2022-08-18T13:11:40;28.50;52.20
42683;DHT22;28293;50.930;3.464;2022-08-18T13:14:06;28.30;51.30
42683;DHT22;28293;50.930;3.464;2022-08-18T13:16:34;28.00;51.50
42683;DHT22;28293;50.930;3.464;2022-08-18T13:19:01;27.80;52.30
42683;DHT22;28293;50.930;3.464;2022-08-18T13:21:27;27.60;54.50
42683;DHT22;28293;50.930;3.464;2022-08-18T13:23:53;27.40;52.90
42683;DHT22;28293;50.930;3.464;2022-08-18T13:26:30;27.30;53.60
42683;DHT22;28293;50.930;3.464;2022-08-18T13:28:56;27.40;53.70
42683;DHT22;28293;50.930;3.464;2022-08-18T13:31:25;27.70;55.30
42683;DHT22;28293;50.930;3.464;2022-08-18T13:33:51;27.90;54.40
42683;DHT22;28293;50.930;3.464;2022-08-18T13:36:17;27.50;54.40
42683;DHT22;28293;50.930;3.464;2022-08-18T13:38:43;27.40;56.20
42683;DHT22;28293;50.930;3.464;2022-08-18T13:41:09;27.50;56.10
42683;DHT22;28293;50.930;3.464;2022-08-18T13:43:40;27.30;56.70
42683;DHT22;28293;50.930;3.464;2022-08-18T13:46:15;27.30;56.70
42683;DHT22;28293;50.930;3.464;2022-08-18T13:48:42;27.20;55.80
42683;DHT22;28293;50.930;3.464;2022-08-18T13:51:09;27.50;56.50
42683;DHT22;28293;50.930;3.464;2022-08-18T13:53:38;27.80;54.50
42683;DHT22;28293;50.930;3.464;2022-08-18T13:56:04;28.10;54.80
42683;DHT22;28293;50.930;3.464;2022-08-18T13:58:30;28.30;53.60
42683;DHT22;28293;50.930;3.464;2022-08-18T14:01:02;28.20;53.30
42683;DHT22;28293;50.930;3.464;2022-08-18T14:03:29;28.30;53.00
42683;DHT22;28293;50.930;3.464;2022-08-18T14:05:55;28.20;53.30
42683;DHT22;28293;50.930;3.464;2022-08-18T14:08:25;27.80;54.30
42683;DHT22;28293;50.930;3.464;2022-08-18T14:10:57;27.50;55.00
42683;DHT22;28293;50.930;3.464;2022-08-18T14:13:23;27.20;55.60
42683;DHT22;28293;50.930;3.464;2022-08-18T14:15:52;27.00;54.40
42683;DHT22;28293;50.930;3.464;2022-08-18T14:18:18;26.90;55.30
42683;DHT22;28293;50.930;3.464;2022-08-18T14:20:44;26.90;55.40
42683;DHT22;28293;50.930;3.464;2022-08-18T14:23:28;26.70;55.20
42683;DHT22;28293;50.930;3.464;2022-08-18T14:26:12;26.50;54.90
42683;DHT22;28293;50.930;3.464;2022-08-18T14:28:57;26.60;55.80
42683;DHT22;28293;50.930;3.464;2022-08-18T14:31:22;26.80;55.90
42683;DHT22;28293;50.930;3.464;2022-08-18T14:33:48;26.90;55.70
42683;DHT22;28293;50.930;3.464;2022-08-18T14:36:14;26.90;56.10
42683;DHT22;28293;50.930;3.464;2022-08-18T14:38:40;26.90;56.10
42683;DHT22;28293;50.930;3.464;2022-08-18T14:41:09;27.10;55.50
42683;DHT22;28293;50.930;3.464;2022-08-18T14:43:35;27.30;55.10
42683;DHT22;28293;50.930;3.464;2022-08-18T14:46:02;27.50;54.70
42683;DHT22;28293;50.930;3.464;2022-08-18T14:48:29;27.80;54.60
42683;DHT22;28293;50.930;3.464;2022-08-18T14:50:56;28.00;54.10
42683;DHT22;28293;50.930;3.464;2022-08-18T14:53:26;28.00;53.00
42683;DHT22;28293;50.930;3.464;2022-08-18T14:55:53;28.00;53.30
42683;DHT22;28293;50.930;3.464;2022-08-18T14:58:24;28.00;54.20
42683;DHT22;28293;50.930;3.464;2022-08-18T15:00:59;27.90;55.00
42683;DHT22;28293;50.930;3.464;2022-08-18T15:03:27;28.00;55.10
42683;DHT22;28293;50.930;3.464;2022-08-18T15:05:53;27.80;54.20
42683;DHT22;28293;50.930;3.464;2022-08-18T15:08:19;27.70;55.10
42683;DHT22;28293;50.930;3.464;2022-08-18T15:10:46;27.60;56.40
42683;DHT22;28293;50.930;3.464;2022-08-18T15:13:12;27.40;57.40
42683;DHT22;28293;50.930;3.464;2022-08-18T15:15:38;27.40;56.40
42683;DHT22;28293;50.930;3.464;2022-08-18T15:18:04;27.50;55.70
42683;DHT22;28293;50.930;3.464;2022-08-18T15:20:30;27.60;56.00
42683;DHT22;28293;50.930;3.464;2022-08-18T15:23:03;27.60;56.20
42683;DHT22;28293;50.930;3.464;2022-08-18T15:25:47;27.60;56.00
42683;DHT22;28293;50.930;3.464;2022-08-18T15:30:44;27.60;56.60
42683;DHT22;28293;50.930;3.464;2022-08-18T15:33:10;27.50;56.40
42683;DHT22;28293;50.930;3.464;2022-08-18T15:35:38;27.40;55.90
42683;DHT22;28293;50.930;3.464;2022-08-18T15:38:07;27.50;56.50
42683;DHT22;28293;50.930;3.464;2022-08-18T15:40:32;27.50;56.00
42683;DHT22;28293;50.930;3.464;2022-08-18T15:43:00;27.50;55.90
42683;DHT22;28293;50.930;3.464;2022-08-18T15:45:29;27.70;55.50
42683;DHT22;28293;50.930;3.464;2022-08-18T15:47:57;27.50;55.20
42683;DHT22;28293;50.930;3.464;2022-08-18T15:50:23;27.40;55.90
42683;DHT22;28293;50.930;3.464;2022-08-18T15:53:01;27.40;56.00
42683;DHT22;28293;50.930;3.464;2022-08-18T15:55:29;27.50;56.30
42683;DHT22;28293;50.930;3.464;2022-08-18T15:57:56;27.00;56.20
42683;DHT22;28293;50.930;3.464;2022-08-18T16:00:23;26.70;57.90
42683;DHT22;28293;50.930;3.464;2022-08-18T16:02:52;27.00;57.00
42683;DHT22;28293;50.930;3.464;2022-08-18T16:05:19;27.00;57.70
42683;DHT22;28293;50.930;3.464;2022-08-18T16:07:48;27.00;56.70
42683;DHT22;28293;50.930;3.464;2022-08-18T16:10:16;26.70;57.60
42683;DHT22;28293;50.930;3.464;2022-08-18T16:12:43;26.80;58.10
42683;DHT22;28293;50.930;3.464;2022-08-18T16:15:09;27.00;56.90
42683;DHT22;28293;50.930;3.464;2022-08-18T16:17:35;27.00;56.90
42683;DHT22;28293;50.930;3.464;2022-08-18T16:20:01;26.90;57.60
42683;DHT22;28293;50.930;3.464;2022-08-18T16:22:27;26.80;57.90
42683;DHT22;28293;50.930;3.464;2022-08-18T16:24:53;26.80;56.80
42683;DHT22;28293;50.930;3.464;2022-08-18T16:27:19;27.00;56.80
42683;DHT22;28293;50.930;3.464;2022-08-18T16:29:45;26.90;57.20
42683;DHT22;28293;50.930;3.464;2022-08-18T16:32:13;26.80;57.20
42683;DHT22;28293;50.930;3.464;2022-08-18T16:34:38;26.90;57.70
42683;DHT22;28293;50.930;3.464;2022-08-18T16:37:04;26.80;57.40
42683;DHT22;28293;50.930;3.464;2022-08-18T16:39:33;26.80;56.80
42683;DHT22;28293;50.930;3.464;2022-08-18T16:41:59;26.70;57.40
42683;DHT22;28293;50.930;3.464;2022-08-18T16:44:25;26.80;57.00
42683;DHT22;28293;50.930;3.464;2022-08-18T16:46:54;26.90;57.10
42683;DHT22;28293;50.930;3.464;2022-08-18T16:49:19;26.90;57.30
42683;DHT22;28293;50.930;3.464;2022-08-18T16:51:45;26.90;57.00
42683;DHT22;28293;50.930;3.464;2022-08-18T16:54:11;26.80;56.80
42683;DHT22;28293;50.930;3.464;2022-08-18T16:56:39;26.70;56.90
42683;DHT22;28293;50.930;3.464;2022-08-18T16:59:05;26.70;57.30
42683;DHT22;28293;50.930;3.464;2022-08-18T17:01:49;26.90;57.80
42683;DHT22;28293;50.930;3.464;2022-08-18T17:04:33;26.90;57.00
42683;DHT22;28293;50.930;3.464;2022-08-18T17:07:03;26.90;57.10
42683;DHT22;28293;50.930;3.464;2022-08-18T17:09:31;27.00;56.70
42683;DHT22;28293;50.930;3.464;2022-08-18T17:11:57;27.00;56.30
42683;DHT22;28293;50.930;3.464;2022-08-18T17:14:25;26.70;57.50
42683;DHT22;28293;50.930;3.464;2022-08-18T17:16:52;26.80;58.30
42683;DHT22;28293;50.930;3.464;2022-08-18T17:19:20;26.90;57.90
42683;DHT22;28293;50.930;3.464;2022-08-18T17:21:46;26.80;58.70
42683;DHT22;28293;50.930;3.464;2022-08-18T17:24:12;26.70;58.50
42683;DHT22;28293;50.930;3.464;2022-08-18T17:32:17;26.40;59.50
42683;DHT22;28293;50.930;3.464;2022-08-18T17:34:47;26.20;59.50
42683;DHT22;28293;50.930;3.464;2022-08-18T17:37:17;26.20;59.80
42683;DHT22;28293;50.930;3.464;2022-08-18T17:39:56;26.10;59.60
42683;DHT22;28293;50.930;3.464;2022-08-18T17:42:28;26.10;60.00
42683;DHT22;28293;50.930;3.464;2022-08-18T17:45:01;25.90;61.00
42683;DHT22;28293;50.930;3.464;2022-08-18T17:47:32;25.80;61.40
42683;DHT22;28293;50.930;3.464;2022-08-18T17:50:07;25.70;61.70
42683;DHT22;28293;50.930;3.464;2022-08-18T17:53:00;25.60;61.90
42683;DHT22;28293;50.930;3.464;2022-08-18T17:55:33;25.60;62.00
42683;DHT22;28293;50.930;3.464;2022-08-18T17:58:14;25.60;62.00
42683;DHT22;28293;50.930;3.464;2022-08-18T18:00:43;25.50;62.30
42683;DHT22;28293;50.930;3.464;2022-08-18T18:03:10;25.50;62.60
42683;DHT22;28293;50.930;3.464;2022-08-18T18:05:41;25.50;62.60
42683;DHT22;28293;50.930;3.464;2022-08-18T18:08:08;25.50;62.40
42683;DHT22;28293;50.930;3.464;2022-08-18T18:10:44;25.50;62.70
42683;DHT22;28293;50.930;3.464;2022-08-18T18:15:54;25.20;63.30
42683;DHT22;28293;50.930;3.464;2022-08-18T18:18:39;25.20;63.80
42683;DHT22;28293;50.930;3.464;2022-08-18T18:21:18;25.10;64.30
42683;DHT22;28293;50.930;3.464;2022-08-18T18:23:51;25.00;64.80
42683;DHT22;28293;50.930;3.464;2022-08-18T18:26:36;25.00;65.10
42683;DHT22;28293;50.930;3.464;2022-08-18T18:34:44;24.70;65.90
42683;DHT22;28293;50.930;3.464;2022-08-18T18:37:44;24.70;66.10
42683;DHT22;28293;50.930;3.464;2022-08-18T18:40:21;24.60;66.40
42683;DHT22;28293;50.930;3.464;2022-08-18T18:42:47;24.50;66.70
42683;DHT22;28293;50.930;3.464;2022-08-18T18:45:25;24.40;67.10
42683;DHT22;28293;50.930;3.464;2022-08-18T18:48:08;24.30;67.70
42683;DHT22;28293;50.930;3.464;2022-08-18T18:50:50;24.30;68.00
42683;DHT22;28293;50.930;3.464;2022-08-18T18:56:55;24.10;68.30
42683;DHT22;28293;50.930;3.464;2022-08-18T18:59:26;24.10;68.50